Campanya meteocatpedra

Dades EMA l'Aldea

?
?
Resum diari
Dades diàries de l'estació meteorològica
Temperatura mitjana 10.9 °C
Temperatura màxima 16.6 °C 14:06 TU
Temperatura mínima 4.5 °C 6:06 TU
Humitat relativa mitjana 70%
Precipitació acumulada 0.0 mm
Ratxa màxima del vent (2 m) 23.4 km/h - 61º 15:00 TU
Irradiació solar global 19.3 MJ/m2

El tram horari està expressat en Temps Universal (TU). Cal sumar una hora en horari d'hivern i dues en horari d'estiu per passar a l'hora oficial.

l'Aldea

Metadades estació meteorol´gica
Municipi L'Aldea
Comarca Baix Ebre
Altitud 62 m
Data alta 03.06.1991
Estat actual Operativa
Dades de període
Període
TU
TM
°C
TX
°C
TN
°C
HRM
%
PPT
mm
VVM (2 m)
km/h
DVM (2 m)
graus
VVX (2 m)
km/h
RS
W/m2
00:00 - 00:30 8.5 8.6 8.3 69 0.0 7.9 331 18.4 0
00:30 - 01:00 8.4 8.4 8.3 71 0.0 7.9 343 20.9 0
01:00 - 01:30 8.4 8.5 8.3 71 0.0 6.1 340 16.9 0
01:30 - 02:00 8.3 8.3 8.3 72 0.0 4.3 328 15.5 0
02:00 - 02:30 7.7 8.2 7.2 77 0.0 2.9 214 9.0 0
02:30 - 03:00 7.1 7.2 7.0 83 0.0 1.8 246 9.0 0
03:00 - 03:30 7.0 7.1 6.9 85 0.0 0.4 249 3.6 0
03:30 - 04:00 6.8 7.0 6.7 85 0.0 0.4 57 2.9 0
04:00 - 04:30 6.5 6.7 6.4 86 0.0 0.7 44 3.2 0
04:30 - 05:00 6.3 6.4 6.1 88 0.0 0.4 262 1.8 0
05:00 - 05:30 5.6 6.1 5.2 89 0.0 0.4 203 2.2 0
05:30 - 06:00 4.9 5.2 4.6 91 0.0 0.4 308 2.2 3
06:00 - 06:30 4.5 4.8 4.5 92 0.0 0.4 334 3.6 40
06:30 - 07:00 5.6 6.5 4.8 93 0.0 0.7 284 4.0 142
07:00 - 07:30 8.2 9.8 6.6 83 0.0 0.7 14 3.6 260
07:30 - 08:00 10.3 10.6 9.7 71 0.0 2.5 118 6.5 351
08:00 - 08:30 11.1 12.1 10.5 66 0.0 2.2 174 6.8 455
08:30 - 09:00 12.4 12.8 12.1 60 0.0 3.2 63 10.4 547
09:00 - 09:30 13.2 13.9 12.6 54 0.0 4.3 80 10.4 644
09:30 - 10:00 13.5 13.9 13.3 56 0.0 5.8 110 14.8 719
10:00 - 10:30 14.0 14.6 13.7 54 0.0 5.8 100 14.8 760
10:30 - 11:00 14.2 14.4 13.9 54 0.0 6.5 72 14.8 794
11:00 - 11:30 14.5 14.9 14.1 57 0.0 6.5 50 18.0 812
11:30 - 12:00 13.7 14.4 13.1 62 0.0 5.4 72 14.0 333
12:00 - 12:30 13.8 14.1 13.1 65 0.0 6.8 61 15.8 555
12:30 - 13:00 14.3 15.6 13.6 65 0.0 7.6 53 16.9 768
13:00 - 13:30 15.6 16.0 15.0 53 0.0 6.1 67 15.5 829
13:30 - 14:00 15.7 16.3 15.0 49 0.0 5.0 73 14.4 682
14:00 - 14:30 15.8 16.6 14.8 48 0.0 5.8 77 17.3 417
14:30 - 15:00 15.2 15.5 14.8 51 0.0 5.8 95 15.8 473
15:00 - 15:30 15.4 16.1 15.0 44 0.0 6.5 139 23.4 318
15:30 - 16:00 15.8 16.2 15.0 43 0.0 9.7 160 22.0 427
16:00 - 16:30 14.3 14.8 14.1 50 0.0 8.6 162 20.5 168
16:30 - 17:00 14.1 14.3 13.8 55 0.0 7.6 162 17.3 119
17:00 - 17:30 13.7 13.8 13.7 59 0.0 5.8 156 16.9 60
17:30 - 18:00 13.7 13.7 13.5 60 0.0 6.1 162 16.9 36
18:00 - 18:30 13.3 13.5 13.0 65 0.0 4.3 160 12.6 6
18:30 - 19:00 12.7 13.0 12.4 70 0.0 2.9 158 8.6 0
19:00 - 19:30 12.3 12.4 12.1 73 0.0 1.8 156 5.4 0
19:30 - 20:00 11.7 12.1 11.1 76 0.0 0.7 98 4.3 0
20:00 - 20:30 10.4 11.0 10.0 81 0.0 1.1 332 3.2 0
20:30 - 21:00 9.5 9.9 9.1 85 0.0 0.7 326 2.5 0
21:00 - 21:30 8.9 9.0 8.7 87 0.0 1.4 319 6.1 0
21:30 - 22:00 8.6 8.7 8.5 88 0.0 1.1 315 3.6 0
22:00 - 22:30 8.5 8.6 8.3 87 0.0 1.4 325 5.0 0
22:30 - 23:00 8.2 8.4 8.1 86 0.0 1.8 319 6.1 0
23:00 - 23:30 (s/d) (s/d) (s/d) (s/d) (s/d) (s/d) (s/d) (s/d) (s/d)

Les dades en taronja només han passat un control de qualitat automàtic. Resta pendent la seva validació definitiva.